createdAt,value
2022-08-16T00:03:44.010Z,21.69
2022-08-16T00:08:46.803Z,21.67
2022-08-16T00:13:53.757Z,21.71
2022-08-16T00:18:59.031Z,21.62
2022-08-16T00:24:04.948Z,21.62
2022-08-16T00:29:07.066Z,21.60
2022-08-16T00:34:09.164Z,21.55
2022-08-16T00:39:20.999Z,21.49
2022-08-16T00:44:23.571Z,21.44
2022-08-16T00:49:39.714Z,21.92
2022-08-16T00:54:47.019Z,21.29
2022-08-16T00:59:58.895Z,21.32
2022-08-16T01:05:09.596Z,21.30
2022-08-16T01:10:16.448Z,21.31
2022-08-16T01:15:19.216Z,21.26
2022-08-16T01:20:30.101Z,21.28
2022-08-16T01:25:37.198Z,21.19
2022-08-16T01:30:49.781Z,21.18
2022-08-16T01:35:58.677Z,21.15
2022-08-16T01:41:20.000Z,21.06
2022-08-16T01:46:39.404Z,20.97
2022-08-16T01:52:04.453Z,21.11
2022-08-16T01:57:31.517Z,20.89
2022-08-16T02:02:34.064Z,20.83
2022-08-16T02:07:44.915Z,20.69
2022-08-16T02:12:52.553Z,20.75
2022-08-16T02:18:01.113Z,20.75
2022-08-16T02:23:06.164Z,20.76
2022-08-16T02:28:08.241Z,20.67
2022-08-16T02:33:12.640Z,20.71
2022-08-16T02:38:18.361Z,20.73
2022-08-16T02:43:26.788Z,20.76
2022-08-16T02:48:32.114Z,20.73
2022-08-16T02:53:41.021Z,20.78
2022-08-16T02:58:47.657Z,20.78
2022-08-16T03:04:41.538Z,20.77
2022-08-16T03:09:14.936Z,20.73
2022-08-16T03:14:24.860Z,20.76
2022-08-16T03:19:48.542Z,20.81
2022-08-16T03:25:01.835Z,20.82
2022-08-16T03:30:15.271Z,20.90
2022-08-16T03:35:33.024Z,20.92
2022-08-16T03:40:43.436Z,21.42
2022-08-16T03:45:46.249Z,20.95
2022-08-16T03:50:59.871Z,20.99
2022-08-16T03:56:04.319Z,21.16
2022-08-16T04:01:08.714Z,21.26
2022-08-16T04:06:11.112Z,21.39
2022-08-16T04:11:16.695Z,21.48
2022-08-16T04:16:26.223Z,21.66
2022-08-16T04:21:34.734Z,22.37
2022-08-16T04:26:37.292Z,22.00
2022-08-16T04:31:56.645Z,22.16
2022-08-16T04:37:03.669Z,22.29
2022-08-16T04:42:12.450Z,22.41
2022-08-16T04:47:23.942Z,22.53
2022-08-16T04:52:34.009Z,22.68
2022-08-16T04:57:39.320Z,22.78
2022-08-16T05:02:43.965Z,22.94
2022-08-16T05:07:58.192Z,23.16
2022-08-16T05:13:04.049Z,23.47
2022-08-16T05:18:06.451Z,24.51
2022-08-16T05:23:25.423Z,26.02
2022-08-16T05:28:37.582Z,27.22
2022-08-16T05:33:43.320Z,28.26
2022-08-16T05:38:46.823Z,29.01
2022-08-16T05:43:50.313Z,29.48
2022-08-16T05:49:09.580Z,29.79
2022-08-16T05:54:24.828Z,30.06
2022-08-16T05:59:29.388Z,30.97
2022-08-16T06:04:36.350Z,31.21
2022-08-16T06:09:46.311Z,30.82
2022-08-16T06:14:51.399Z,31.20
2022-08-16T06:19:56.209Z,31.54
2022-08-16T06:24:59.066Z,31.62
2022-08-16T06:30:03.218Z,31.94
2022-08-16T06:35:07.999Z,32.29
2022-08-16T06:40:12.873Z,33.17
2022-08-16T06:45:23.226Z,33.85
2022-08-16T06:50:36.007Z,34.32
2022-08-16T06:55:43.347Z,34.59
2022-08-16T07:00:48.566Z,34.35
2022-08-16T07:05:53.094Z,34.41
2022-08-16T07:11:03.443Z,35.00
2022-08-16T07:16:15.369Z,35.79
2022-08-16T07:21:19.445Z,36.86
2022-08-16T07:26:25.742Z,35.67
2022-08-16T07:31:38.074Z,36.46
2022-08-16T07:36:45.668Z,37.86
2022-08-16T07:42:01.380Z,38.20
2022-08-16T07:47:04.346Z,37.35
2022-08-16T07:52:18.571Z,37.19
2022-08-16T07:57:21.100Z,37.33
2022-08-16T08:02:28.684Z,37.80
2022-08-16T08:07:33.225Z,38.38
2022-08-16T08:12:39.290Z,38.67
2022-08-16T08:17:44.135Z,38.96
2022-08-16T08:22:53.759Z,39.77
2022-08-16T08:28:04.333Z,40.04
2022-08-16T08:33:13.568Z,39.81
2022-08-16T08:38:44.902Z,39.31
2022-08-16T08:43:43.097Z,39.36
2022-08-16T08:48:59.069Z,39.01
2022-08-16T08:54:06.770Z,39.03
2022-08-16T08:59:12.975Z,39.78
2022-08-16T09:04:18.979Z,40.55
2022-08-16T09:09:23.666Z,40.27
2022-08-16T09:14:32.341Z,40.72
2022-08-16T09:19:37.301Z,41.08
2022-08-16T09:24:52.643Z,41.79
2022-08-16T09:29:59.967Z,41.53
2022-08-16T09:35:05.033Z,41.12
2022-08-16T09:40:29.326Z,39.03
2022-08-16T09:45:33.884Z,39.56
2022-08-16T09:50:39.872Z,41.60
2022-08-16T09:55:44.207Z,42.60
2022-08-16T10:00:47.006Z,42.76
2022-08-16T10:05:50.065Z,42.66
2022-08-16T10:11:11.277Z,43.02
2022-08-16T10:21:17.238Z,43.73
2022-08-16T10:27:19.944Z,42.08
2022-08-16T10:31:53.239Z,42.03
2022-08-16T10:36:56.962Z,41.78
2022-08-16T10:41:59.557Z,41.59
2022-08-16T10:47:02.640Z,41.89
2022-08-16T10:52:18.176Z,40.05
2022-08-16T10:57:24.512Z,38.47
2022-08-16T11:02:58.818Z,40.05
2022-08-16T11:07:53.585Z,42.01
2022-08-16T11:13:21.149Z,42.70
2022-08-16T11:19:03.130Z,41.44
2022-08-16T11:23:56.724Z,42.69
2022-08-16T11:29:15.735Z,43.84
2022-08-16T11:34:19.881Z,43.00
2022-08-16T11:39:23.303Z,42.68
2022-08-16T11:44:40.715Z,43.28
2022-08-16T11:49:48.258Z,43.04
2022-08-16T11:54:56.828Z,42.32
2022-08-16T11:59:59.176Z,43.17
2022-08-16T12:05:01.261Z,41.78
2022-08-16T12:10:10.412Z,41.47
2022-08-16T12:15:13.725Z,41.29
2022-08-16T12:20:21.398Z,41.51
2022-08-16T12:25:26.920Z,41.09
2022-08-16T12:30:38.751Z,40.33
2022-08-16T12:35:41.934Z,41.07
2022-08-16T12:40:47.101Z,41.91
2022-08-16T12:45:53.400Z,41.94
2022-08-16T12:50:57.022Z,42.20
2022-08-16T12:56:00.043Z,42.39
2022-08-16T13:01:02.513Z,42.16
2022-08-16T13:06:04.675Z,41.58
2022-08-16T13:11:08.038Z,39.89
2022-08-16T13:16:20.307Z,39.00
2022-08-16T13:21:23.394Z,38.15
2022-08-16T13:26:26.696Z,36.40
2022-08-16T13:31:28.815Z,35.78
2022-08-16T13:36:48.738Z,35.78
2022-08-16T13:41:54.488Z,35.98
2022-08-16T13:46:57.520Z,35.63
2022-08-16T13:51:59.657Z,35.19
2022-08-16T13:57:02.003Z,34.93
2022-08-16T14:02:08.029Z,34.85
2022-08-16T14:07:13.487Z,34.16
2022-08-16T14:12:30.297Z,33.55
2022-08-16T14:18:14.958Z,33.12
2022-08-16T14:22:55.474Z,32.82
2022-08-16T14:27:57.638Z,32.37
2022-08-16T14:33:00.123Z,32.21
2022-08-16T14:38:02.492Z,32.01
2022-08-16T14:43:07.533Z,32.04
2022-08-16T14:48:10.420Z,32.00
2022-08-16T14:53:12.737Z,31.96
2022-08-16T14:58:19.114Z,31.76
2022-08-16T15:03:25.610Z,31.60
2022-08-16T15:08:37.251Z,31.43
2022-08-16T15:13:42.634Z,31.39
2022-08-16T15:18:46.613Z,31.47
2022-08-16T15:23:48.859Z,31.43
2022-08-16T15:28:51.853Z,31.54
2022-08-16T15:33:58.108Z,31.38
2022-08-16T15:39:06.879Z,31.10
2022-08-16T15:44:24.977Z,30.89
2022-08-16T15:49:37.737Z,30.57
2022-08-16T15:54:53.705Z,30.34
2022-08-16T16:00:04.874Z,30.15
2022-08-16T16:05:18.994Z,30.00
2022-08-16T16:10:21.984Z,29.83
2022-08-16T16:15:35.088Z,29.79
2022-08-16T16:20:39.770Z,29.62
2022-08-16T16:25:44.672Z,29.45
2022-08-16T16:30:47.238Z,29.28
2022-08-16T16:35:56.666Z,29.15
2022-08-16T16:41:01.110Z,28.94
2022-08-16T16:46:40.707Z,28.79
2022-08-16T16:51:29.389Z,28.59
2022-08-16T16:56:36.971Z,28.44
2022-08-16T17:01:59.385Z,28.44
2022-08-16T17:07:03.524Z,28.18
2022-08-16T17:12:06.185Z,28.09
2022-08-16T17:17:09.271Z,27.95
2022-08-16T17:22:19.844Z,27.88
2022-08-16T17:27:33.900Z,27.77
2022-08-16T17:32:47.330Z,27.69
2022-08-16T17:37:52.447Z,27.56
2022-08-16T17:42:57.265Z,27.50
2022-08-16T17:47:59.629Z,27.43
2022-08-16T17:53:04.762Z,27.37
2022-08-16T17:58:22.661Z,27.27
2022-08-16T18:04:09.165Z,27.31
2022-08-16T18:09:01.749Z,27.12
2022-08-16T18:14:06.550Z,27.02
2022-08-16T18:19:10.108Z,26.94
2022-08-16T18:24:14.916Z,26.84
2022-08-16T18:29:18.216Z,26.72
2022-08-16T18:34:20.839Z,26.60
2022-08-16T18:39:22.931Z,26.59
2022-08-16T18:44:30.076Z,26.53
2022-08-16T18:49:36.372Z,26.45
2022-08-16T18:55:02.043Z,26.36
2022-08-16T19:00:00.748Z,26.29
2022-08-16T19:05:03.102Z,26.21
2022-08-16T19:10:06.489Z,26.08
2022-08-16T19:15:14.159Z,26.13
2022-08-16T19:20:19.235Z,25.95
2022-08-16T19:25:23.600Z,25.95
2022-08-16T19:30:45.676Z,25.84
2022-08-16T19:35:47.811Z,25.70
2022-08-16T19:40:50.555Z,25.68
2022-08-16T19:45:53.439Z,25.65
2022-08-16T19:50:55.465Z,25.60
2022-08-16T19:55:57.555Z,25.57
2022-08-16T20:01:00.694Z,25.54
2022-08-16T20:06:02.771Z,25.37
2022-08-16T20:11:05.276Z,25.39
2022-08-16T20:16:07.859Z,25.34
2022-08-16T20:21:09.889Z,25.26
2022-08-16T20:26:11.908Z,25.17
2022-08-16T20:31:14.038Z,25.06
2022-08-16T20:36:16.682Z,24.97
2022-08-16T20:41:19.202Z,24.95
2022-08-16T20:46:21.280Z,24.88
2022-08-16T20:51:23.313Z,24.82
2022-08-16T20:56:25.563Z,24.73
2022-08-16T21:01:45.779Z,24.62
2022-08-16T21:06:54.369Z,24.58
2022-08-16T21:12:19.567Z,24.52
2022-08-16T21:17:21.886Z,24.45
2022-08-16T21:28:41.553Z,24.33
2022-08-16T21:33:20.087Z,24.26
2022-08-16T21:38:28.634Z,24.13
2022-08-16T21:43:33.605Z,24.02
2022-08-16T21:48:36.868Z,23.97
2022-08-16T21:53:45.958Z,23.99
2022-08-16T21:58:52.951Z,23.88
2022-08-16T22:04:03.511Z,23.78
2022-08-16T22:09:19.025Z,23.72
2022-08-16T22:14:30.247Z,23.57
2022-08-16T22:19:36.435Z,23.56
2022-08-16T22:24:39.225Z,23.48
2022-08-16T22:29:55.568Z,23.46
2022-08-16T22:35:12.363Z,23.41
2022-08-16T22:40:17.679Z,23.37
2022-08-16T22:45:31.895Z,23.29
2022-08-16T22:50:35.832Z,23.22
2022-08-16T22:55:40.687Z,23.11
2022-08-16T23:00:48.740Z,23.01
2022-08-16T23:06:02.779Z,23.00
2022-08-16T23:11:15.300Z,22.95
2022-08-16T23:16:21.529Z,22.74
2022-08-16T23:21:24.555Z,22.67
2022-08-16T23:26:47.263Z,22.57
2022-08-16T23:31:51.993Z,22.51
2022-08-16T23:37:00.327Z,22.36
2022-08-16T23:42:07.410Z,22.38
2022-08-16T23:47:09.727Z,22.34
2022-08-16T23:52:12.110Z,22.26
2022-08-16T23:57:14.220Z,22.21
